sensor_id;sensor_type;location;lat;lon;timestamp;P1;durP1;ratioP1;P2;durP2;ratioP2
46653;SDS011;38960;51.074;17.004;2022-11-20T00:01:40;79.07;;;36.00;;
46653;SDS011;38960;51.074;17.004;2022-11-20T00:04:05;75.00;;;34.73;;
46653;SDS011;38960;51.074;17.004;2022-11-20T00:06:31;77.40;;;34.30;;
46653;SDS011;38960;51.074;17.004;2022-11-20T00:08:57;82.70;;;35.60;;
46653;SDS011;38960;51.074;17.004;2022-11-20T00:11:26;81.73;;;35.97;;
46653;SDS011;38960;51.074;17.004;2022-11-20T00:13:53;79.57;;;36.87;;
46653;SDS011;38960;51.074;17.004;2022-11-20T00:16:22;78.90;;;36.07;;
46653;SDS011;38960;51.074;17.004;2022-11-20T00:18:50;80.37;;;37.30;;
46653;SDS011;38960;51.074;17.004;2022-11-20T00:21:17;77.47;;;36.03;;
46653;SDS011;38960;51.074;17.004;2022-11-20T00:23:43;77.67;;;36.00;;
46653;SDS011;38960;51.074;17.004;2022-11-20T00:26:10;80.37;;;36.07;;
46653;SDS011;38960;51.074;17.004;2022-11-20T00:28:39;78.77;;;37.70;;
46653;SDS011;38960;51.074;17.004;2022-11-20T00:33:32;80.50;;;37.37;;
46653;SDS011;38960;51.074;17.004;2022-11-20T00:38:51;76.80;;;35.53;;
46653;SDS011;38960;51.074;17.004;2022-11-20T00:41:17;80.00;;;36.80;;
46653;SDS011;38960;51.074;17.004;2022-11-20T00:43:43;79.60;;;37.10;;
46653;SDS011;38960;51.074;17.004;2022-11-20T00:46:17;82.23;;;38.40;;
46653;SDS011;38960;51.074;17.004;2022-11-20T00:48:44;80.43;;;37.17;;
46653;SDS011;38960;51.074;17.004;2022-11-20T00:51:11;73.37;;;37.07;;
46653;SDS011;38960;51.074;17.004;2022-11-20T00:53:38;77.20;;;35.70;;
46653;SDS011;38960;51.074;17.004;2022-11-20T00:56:05;82.43;;;38.33;;
46653;SDS011;38960;51.074;17.004;2022-11-20T00:58:33;80.93;;;36.57;;
46653;SDS011;38960;51.074;17.004;2022-11-20T01:01:00;72.83;;;36.27;;
46653;SDS011;38960;51.074;17.004;2022-11-20T01:03:27;79.33;;;37.13;;
46653;SDS011;38960;51.074;17.004;2022-11-20T01:05:52;78.53;;;36.13;;
46653;SDS011;38960;51.074;17.004;2022-11-20T01:08:18;78.27;;;36.30;;
46653;SDS011;38960;51.074;17.004;2022-11-20T01:10:43;86.43;;;37.57;;
46653;SDS011;38960;51.074;17.004;2022-11-20T01:13:09;78.37;;;35.80;;
46653;SDS011;38960;51.074;17.004;2022-11-20T01:15:53;76.90;;;35.50;;
46653;SDS011;38960;51.074;17.004;2022-11-20T01:18:18;72.93;;;34.87;;
46653;SDS011;38960;51.074;17.004;2022-11-20T01:20:44;76.33;;;34.90;;
46653;SDS011;38960;51.074;17.004;2022-11-20T01:23:09;74.83;;;36.73;;
46653;SDS011;38960;51.074;17.004;2022-11-20T01:25:35;77.73;;;35.00;;
46653;SDS011;38960;51.074;17.004;2022-11-20T01:28:00;69.43;;;34.23;;
46653;SDS011;38960;51.074;17.004;2022-11-20T01:30:26;82.60;;;36.70;;
46653;SDS011;38960;51.074;17.004;2022-11-20T01:32:51;72.10;;;35.23;;
46653;SDS011;38960;51.074;17.004;2022-11-20T01:35:16;72.10;;;34.53;;
46653;SDS011;38960;51.074;17.004;2022-11-20T01:37:42;72.47;;;35.70;;
46653;SDS011;38960;51.074;17.004;2022-11-20T01:40:08;74.47;;;35.43;;
46653;SDS011;38960;51.074;17.004;2022-11-20T01:42:34;73.37;;;35.07;;
46653;SDS011;38960;51.074;17.004;2022-11-20T01:48:13;63.83;;;30.93;;
46653;SDS011;38960;51.074;17.004;2022-11-20T01:50:39;72.53;;;32.90;;
46653;SDS011;38960;51.074;17.004;2022-11-20T01:53:06;67.00;;;32.57;;
46653;SDS011;38960;51.074;17.004;2022-11-20T01:55:34;63.13;;;31.53;;
46653;SDS011;38960;51.074;17.004;2022-11-20T01:58:02;60.00;;;29.00;;
46653;SDS011;38960;51.074;17.004;2022-11-20T02:00:29;68.00;;;31.77;;
46653;SDS011;38960;51.074;17.004;2022-11-20T02:02:58;65.67;;;30.77;;
46653;SDS011;38960;51.074;17.004;2022-11-20T02:05:36;71.77;;;28.80;;
46653;SDS011;38960;51.074;17.004;2022-11-20T02:08:08;66.23;;;30.27;;
46653;SDS011;38960;51.074;17.004;2022-11-20T02:10:34;61.30;;;31.47;;
46653;SDS011;38960;51.074;17.004;2022-11-20T02:13:00;66.17;;;31.40;;
46653;SDS011;38960;51.074;17.004;2022-11-20T02:15:44;64.00;;;29.77;;
46653;SDS011;38960;51.074;17.004;2022-11-20T02:18:10;58.87;;;28.80;;
46653;SDS011;38960;51.074;17.004;2022-11-20T02:20:37;63.93;;;27.90;;
46653;SDS011;38960;51.074;17.004;2022-11-20T02:23:12;61.80;;;28.50;;
46653;SDS011;38960;51.074;17.004;2022-11-20T02:25:41;55.37;;;25.87;;
46653;SDS011;38960;51.074;17.004;2022-11-20T02:28:08;58.97;;;28.20;;
46653;SDS011;38960;51.074;17.004;2022-11-20T02:30:34;63.27;;;28.23;;
46653;SDS011;38960;51.074;17.004;2022-11-20T02:33:00;67.77;;;31.00;;
46653;SDS011;38960;51.074;17.004;2022-11-20T02:37:52;74.23;;;32.20;;
46653;SDS011;38960;51.074;17.004;2022-11-20T02:40:19;72.47;;;32.03;;
46653;SDS011;38960;51.074;17.004;2022-11-20T02:42:45;70.67;;;30.23;;
46653;SDS011;38960;51.074;17.004;2022-11-20T02:45:11;69.10;;;29.03;;
46653;SDS011;38960;51.074;17.004;2022-11-20T02:47:36;57.87;;;25.93;;
46653;SDS011;38960;51.074;17.004;2022-11-20T02:50:02;54.33;;;25.70;;
46653;SDS011;38960;51.074;17.004;2022-11-20T02:52:28;53.80;;;26.70;;
46653;SDS011;38960;51.074;17.004;2022-11-20T02:54:54;53.30;;;25.67;;
46653;SDS011;38960;51.074;17.004;2022-11-20T02:57:19;55.03;;;28.53;;
46653;SDS011;38960;51.074;17.004;2022-11-20T02:59:45;55.00;;;25.47;;
46653;SDS011;38960;51.074;17.004;2022-11-20T03:02:10;51.87;;;24.57;;
46653;SDS011;38960;51.074;17.004;2022-11-20T03:04:36;54.47;;;26.10;;
46653;SDS011;38960;51.074;17.004;2022-11-20T03:07:01;53.53;;;25.03;;
46653;SDS011;38960;51.074;17.004;2022-11-20T03:09:27;54.17;;;24.73;;
46653;SDS011;38960;51.074;17.004;2022-11-20T03:11:53;51.03;;;24.60;;
46653;SDS011;38960;51.074;17.004;2022-11-20T03:14:18;51.93;;;24.43;;
46653;SDS011;38960;51.074;17.004;2022-11-20T03:16:44;44.50;;;23.77;;
46653;SDS011;38960;51.074;17.004;2022-11-20T03:19:10;49.83;;;23.57;;
46653;SDS011;38960;51.074;17.004;2022-11-20T03:21:36;41.40;;;23.23;;
46653;SDS011;38960;51.074;17.004;2022-11-20T03:24:02;45.10;;;23.17;;
46653;SDS011;38960;51.074;17.004;2022-11-20T03:26:27;45.70;;;23.60;;
46653;SDS011;38960;51.074;17.004;2022-11-20T03:28:57;45.13;;;22.83;;
46653;SDS011;38960;51.074;17.004;2022-11-20T03:31:25;45.50;;;23.50;;
46653;SDS011;38960;51.074;17.004;2022-11-20T03:33:55;48.70;;;22.90;;
46653;SDS011;38960;51.074;17.004;2022-11-20T03:36:22;50.90;;;23.03;;
46653;SDS011;38960;51.074;17.004;2022-11-20T03:38:47;48.33;;;24.10;;
46653;SDS011;38960;51.074;17.004;2022-11-20T03:41:14;47.33;;;24.17;;
46653;SDS011;38960;51.074;17.004;2022-11-20T03:43:46;43.60;;;21.87;;
46653;SDS011;38960;51.074;17.004;2022-11-20T03:46:15;44.70;;;22.47;;
46653;SDS011;38960;51.074;17.004;2022-11-20T03:48:41;47.00;;;24.40;;
46653;SDS011;38960;51.074;17.004;2022-11-20T03:51:26;41.77;;;22.70;;
46653;SDS011;38960;51.074;17.004;2022-11-20T03:53:54;46.13;;;23.50;;
46653;SDS011;38960;51.074;17.004;2022-11-20T03:56:25;49.20;;;23.67;;
46653;SDS011;38960;51.074;17.004;2022-11-20T03:58:52;42.78;;;22.45;;
46653;SDS011;38960;51.074;17.004;2022-11-20T04:01:18;48.13;;;22.60;;
46653;SDS011;38960;51.074;17.004;2022-11-20T04:03:45;45.47;;;22.80;;
46653;SDS011;38960;51.074;17.004;2022-11-20T04:06:22;46.97;;;22.43;;
46653;SDS011;38960;51.074;17.004;2022-11-20T04:08:49;46.27;;;22.03;;
46653;SDS011;38960;51.074;17.004;2022-11-20T04:11:19;44.50;;;21.40;;
46653;SDS011;38960;51.074;17.004;2022-11-20T04:13:46;48.73;;;22.93;;
46653;SDS011;38960;51.074;17.004;2022-11-20T04:16:13;48.20;;;23.03;;
46653;SDS011;38960;51.074;17.004;2022-11-20T04:18:39;47.87;;;23.13;;
46653;SDS011;38960;51.074;17.004;2022-11-20T04:21:05;47.07;;;22.17;;
46653;SDS011;38960;51.074;17.004;2022-11-20T04:23:31;46.43;;;22.20;;
46653;SDS011;38960;51.074;17.004;2022-11-20T04:26:03;50.43;;;23.03;;
46653;SDS011;38960;51.074;17.004;2022-11-20T04:28:33;42.47;;;22.63;;
46653;SDS011;38960;51.074;17.004;2022-11-20T04:31:07;47.87;;;22.60;;
46653;SDS011;38960;51.074;17.004;2022-11-20T04:33:34;41.60;;;22.20;;
46653;SDS011;38960;51.074;17.004;2022-11-20T04:36:00;45.10;;;22.33;;
46653;SDS011;38960;51.074;17.004;2022-11-20T04:38:28;45.60;;;23.30;;
46653;SDS011;38960;51.074;17.004;2022-11-20T04:40:59;44.90;;;23.30;;
46653;SDS011;38960;51.074;17.004;2022-11-20T04:43:27;46.00;;;22.13;;
46653;SDS011;38960;51.074;17.004;2022-11-20T04:45:54;50.87;;;22.93;;
46653;SDS011;38960;51.074;17.004;2022-11-20T04:48:20;45.63;;;23.77;;
46653;SDS011;38960;51.074;17.004;2022-11-20T04:50:45;45.73;;;22.47;;
46653;SDS011;38960;51.074;17.004;2022-11-20T04:53:11;47.40;;;22.53;;
46653;SDS011;38960;51.074;17.004;2022-11-20T04:55:37;48.20;;;23.00;;
46653;SDS011;38960;51.074;17.004;2022-11-20T04:58:02;53.57;;;23.20;;
46653;SDS011;38960;51.074;17.004;2022-11-20T05:00:28;45.27;;;23.03;;
46653;SDS011;38960;51.074;17.004;2022-11-20T05:02:53;44.73;;;22.80;;
46653;SDS011;38960;51.074;17.004;2022-11-20T05:05:18;50.37;;;22.70;;
46653;SDS011;38960;51.074;17.004;2022-11-20T05:07:44;49.13;;;23.30;;
46653;SDS011;38960;51.074;17.004;2022-11-20T05:10:09;53.60;;;24.67;;
46653;SDS011;38960;51.074;17.004;2022-11-20T05:12:35;54.90;;;25.97;;
46653;SDS011;38960;51.074;17.004;2022-11-20T05:15:00;49.20;;;24.50;;
46653;SDS011;38960;51.074;17.004;2022-11-20T05:17:26;53.90;;;25.27;;
46653;SDS011;38960;51.074;17.004;2022-11-20T05:19:51;55.73;;;24.83;;
46653;SDS011;38960;51.074;17.004;2022-11-20T05:22:17;57.37;;;26.27;;
46653;SDS011;38960;51.074;17.004;2022-11-20T05:24:42;51.37;;;23.93;;
46653;SDS011;38960;51.074;17.004;2022-11-20T05:27:07;48.63;;;24.20;;
46653;SDS011;38960;51.074;17.004;2022-11-20T05:29:33;56.60;;;25.53;;
46653;SDS011;38960;51.074;17.004;2022-11-20T05:31:58;56.13;;;26.47;;
46653;SDS011;38960;51.074;17.004;2022-11-20T05:34:24;61.10;;;28.07;;
46653;SDS011;38960;51.074;17.004;2022-11-20T05:36:49;59.03;;;29.10;;
46653;SDS011;38960;51.074;17.004;2022-11-20T05:39:15;56.93;;;28.47;;
46653;SDS011;38960;51.074;17.004;2022-11-20T05:41:40;58.37;;;27.37;;
46653;SDS011;38960;51.074;17.004;2022-11-20T05:44:06;59.93;;;28.23;;
46653;SDS011;38960;51.074;17.004;2022-11-20T05:46:31;54.60;;;26.87;;
46653;SDS011;38960;51.074;17.004;2022-11-20T05:48:57;51.67;;;26.13;;
46653;SDS011;38960;51.074;17.004;2022-11-20T05:51:22;55.13;;;26.70;;
46653;SDS011;38960;51.074;17.004;2022-11-20T05:53:48;54.30;;;27.77;;
46653;SDS011;38960;51.074;17.004;2022-11-20T05:56:15;50.53;;;26.00;;
46653;SDS011;38960;51.074;17.004;2022-11-20T05:58:42;52.83;;;26.20;;
46653;SDS011;38960;51.074;17.004;2022-11-20T06:01:12;58.67;;;28.37;;
46653;SDS011;38960;51.074;17.004;2022-11-20T06:03:45;54.50;;;25.73;;
46653;SDS011;38960;51.074;17.004;2022-11-20T06:06:12;54.13;;;27.03;;
46653;SDS011;38960;51.074;17.004;2022-11-20T06:08:41;56.73;;;27.67;;
46653;SDS011;38960;51.074;17.004;2022-11-20T06:11:08;48.83;;;25.73;;
46653;SDS011;38960;51.074;17.004;2022-11-20T06:13:35;54.47;;;27.70;;
46653;SDS011;38960;51.074;17.004;2022-11-20T06:16:01;59.93;;;28.70;;
46653;SDS011;38960;51.074;17.004;2022-11-20T06:18:27;54.13;;;28.30;;
46653;SDS011;38960;51.074;17.004;2022-11-20T06:21:03;54.63;;;28.23;;
46653;SDS011;38960;51.074;17.004;2022-11-20T06:23:31;59.73;;;29.20;;
46653;SDS011;38960;51.074;17.004;2022-11-20T06:25:57;56.67;;;28.47;;
46653;SDS011;38960;51.074;17.004;2022-11-20T06:28:23;59.20;;;28.13;;
46653;SDS011;38960;51.074;17.004;2022-11-20T06:30:49;57.63;;;27.33;;
46653;SDS011;38960;51.074;17.004;2022-11-20T06:33:14;56.50;;;28.07;;
46653;SDS011;38960;51.074;17.004;2022-11-20T06:35:39;62.10;;;29.93;;
46653;SDS011;38960;51.074;17.004;2022-11-20T06:38:05;57.10;;;27.90;;
46653;SDS011;38960;51.074;17.004;2022-11-20T06:40:30;57.97;;;28.87;;
46653;SDS011;38960;51.074;17.004;2022-11-20T06:42:56;58.83;;;27.63;;
46653;SDS011;38960;51.074;17.004;2022-11-20T06:45:21;58.97;;;28.50;;
46653;SDS011;38960;51.074;17.004;2022-11-20T06:47:47;55.37;;;28.47;;
46653;SDS011;38960;51.074;17.004;2022-11-20T06:50:12;65.07;;;30.50;;
46653;SDS011;38960;51.074;17.004;2022-11-20T06:52:38;63.37;;;29.33;;
46653;SDS011;38960;51.074;17.004;2022-11-20T06:55:04;60.80;;;30.27;;
46653;SDS011;38960;51.074;17.004;2022-11-20T06:57:29;65.03;;;30.40;;
46653;SDS011;38960;51.074;17.004;2022-11-20T06:59:55;72.03;;;29.93;;
46653;SDS011;38960;51.074;17.004;2022-11-20T07:02:20;61.87;;;28.77;;
46653;SDS011;38960;51.074;17.004;2022-11-20T07:04:46;56.10;;;29.37;;
46653;SDS011;38960;51.074;17.004;2022-11-20T07:07:11;57.77;;;30.13;;
46653;SDS011;38960;51.074;17.004;2022-11-20T07:09:36;60.13;;;28.07;;
46653;SDS011;38960;51.074;17.004;2022-11-20T07:12:02;61.77;;;29.43;;
46653;SDS011;38960;51.074;17.004;2022-11-20T07:14:28;62.17;;;30.17;;
46653;SDS011;38960;51.074;17.004;2022-11-20T07:16:53;66.17;;;30.90;;
46653;SDS011;38960;51.074;17.004;2022-11-20T07:19:19;63.00;;;30.57;;
46653;SDS011;38960;51.074;17.004;2022-11-20T07:21:44;64.00;;;31.20;;
46653;SDS011;38960;51.074;17.004;2022-11-20T07:24:10;85.73;;;41.03;;
46653;SDS011;38960;51.074;17.004;2022-11-20T07:26:35;79.07;;;36.80;;
46653;SDS011;38960;51.074;17.004;2022-11-20T07:29:01;76.77;;;38.97;;
46653;SDS011;38960;51.074;17.004;2022-11-20T07:31:26;75.53;;;37.30;;
46653;SDS011;38960;51.074;17.004;2022-11-20T07:33:52;72.27;;;36.23;;
46653;SDS011;38960;51.074;17.004;2022-11-20T07:36:17;74.27;;;35.87;;
46653;SDS011;38960;51.074;17.004;2022-11-20T07:38:43;81.47;;;35.00;;
46653;SDS011;38960;51.074;17.004;2022-11-20T07:41:08;70.73;;;31.97;;
46653;SDS011;38960;51.074;17.004;2022-11-20T07:43:33;68.60;;;31.47;;
46653;SDS011;38960;51.074;17.004;2022-11-20T07:45:59;63.27;;;30.47;;
46653;SDS011;38960;51.074;17.004;2022-11-20T07:48:25;64.87;;;31.57;;
46653;SDS011;38960;51.074;17.004;2022-11-20T07:50:54;63.83;;;32.40;;
46653;SDS011;38960;51.074;17.004;2022-11-20T07:53:20;63.33;;;31.83;;
46653;SDS011;38960;51.074;17.004;2022-11-20T07:55:47;61.03;;;29.43;;
46653;SDS011;38960;51.074;17.004;2022-11-20T07:58:12;65.03;;;32.20;;
46653;SDS011;38960;51.074;17.004;2022-11-20T08:00:39;56.17;;;28.67;;
46653;SDS011;38960;51.074;17.004;2022-11-20T08:03:05;63.93;;;30.10;;
46653;SDS011;38960;51.074;17.004;2022-11-20T08:05:31;54.87;;;28.50;;
46653;SDS011;38960;51.074;17.004;2022-11-20T08:07:56;52.70;;;27.37;;
46653;SDS011;38960;51.074;17.004;2022-11-20T08:10:22;48.70;;;26.43;;
46653;SDS011;38960;51.074;17.004;2022-11-20T08:12:48;48.40;;;25.63;;
46653;SDS011;38960;51.074;17.004;2022-11-20T08:15:33;46.77;;;24.50;;
46653;SDS011;38960;51.074;17.004;2022-11-20T08:18:09;44.63;;;24.07;;
46653;SDS011;38960;51.074;17.004;2022-11-20T08:20:36;41.90;;;23.20;;
46653;SDS011;38960;51.074;17.004;2022-11-20T08:23:04;45.40;;;23.07;;
46653;SDS011;38960;51.074;17.004;2022-11-20T08:25:31;45.80;;;24.33;;
46653;SDS011;38960;51.074;17.004;2022-11-20T08:28:01;41.47;;;22.27;;
46653;SDS011;38960;51.074;17.004;2022-11-20T08:30:27;46.97;;;24.37;;
46653;SDS011;38960;51.074;17.004;2022-11-20T08:32:53;40.53;;;23.13;;
46653;SDS011;38960;51.074;17.004;2022-11-20T08:35:20;46.67;;;25.70;;
46653;SDS011;38960;51.074;17.004;2022-11-20T08:37:46;42.77;;;23.70;;
46653;SDS011;38960;51.074;17.004;2022-11-20T08:40:12;43.07;;;23.50;;
46653;SDS011;38960;51.074;17.004;2022-11-20T08:42:45;41.40;;;22.93;;
46653;SDS011;38960;51.074;17.004;2022-11-20T08:45:12;41.53;;;23.70;;
46653;SDS011;38960;51.074;17.004;2022-11-20T08:47:38;38.03;;;22.57;;
46653;SDS011;38960;51.074;17.004;2022-11-20T08:50:03;37.43;;;22.20;;
46653;SDS011;38960;51.074;17.004;2022-11-20T08:52:29;37.83;;;22.57;;
46653;SDS011;38960;51.074;17.004;2022-11-20T08:54:54;37.70;;;21.03;;
46653;SDS011;38960;51.074;17.004;2022-11-20T08:57:20;36.47;;;22.07;;
46653;SDS011;38960;51.074;17.004;2022-11-20T08:59:45;41.37;;;22.40;;
46653;SDS011;38960;51.074;17.004;2022-11-20T09:02:11;43.10;;;23.93;;
46653;SDS011;38960;51.074;17.004;2022-11-20T09:04:37;38.60;;;23.27;;
46653;SDS011;38960;51.074;17.004;2022-11-20T09:07:02;38.30;;;22.20;;
46653;SDS011;38960;51.074;17.004;2022-11-20T09:09:28;40.03;;;23.77;;
46653;SDS011;38960;51.074;17.004;2022-11-20T09:11:53;42.80;;;24.83;;
46653;SDS011;38960;51.074;17.004;2022-11-20T09:14:19;39.17;;;22.07;;
46653;SDS011;38960;51.074;17.004;2022-11-20T09:16:45;42.27;;;22.87;;
46653;SDS011;38960;51.074;17.004;2022-11-20T09:19:11;43.60;;;24.17;;
46653;SDS011;38960;51.074;17.004;2022-11-20T09:21:36;40.40;;;25.83;;
46653;SDS011;38960;51.074;17.004;2022-11-20T09:24:02;33.33;;;21.30;;
46653;SDS011;38960;51.074;17.004;2022-11-20T09:26:28;35.07;;;21.93;;
46653;SDS011;38960;51.074;17.004;2022-11-20T09:28:53;32.60;;;20.07;;
46653;SDS011;38960;51.074;17.004;2022-11-20T09:31:24;30.33;;;19.23;;
46653;SDS011;38960;51.074;17.004;2022-11-20T09:33:51;34.03;;;20.73;;
46653;SDS011;38960;51.074;17.004;2022-11-20T09:36:16;29.10;;;18.53;;
46653;SDS011;38960;51.074;17.004;2022-11-20T09:38:44;37.07;;;21.60;;
46653;SDS011;38960;51.074;17.004;2022-11-20T09:54:55;31.13;;;20.20;;
46653;SDS011;38960;51.074;17.004;2022-11-20T09:57:23;32.13;;;20.87;;
46653;SDS011;38960;51.074;17.004;2022-11-20T09:59:56;33.07;;;18.37;;
46653;SDS011;38960;51.074;17.004;2022-11-20T10:04:49;33.33;;;20.97;;
46653;SDS011;38960;51.074;17.004;2022-11-20T10:07:27;28.20;;;18.97;;
46653;SDS011;38960;51.074;17.004;2022-11-20T10:09:56;28.03;;;18.53;;
46653;SDS011;38960;51.074;17.004;2022-11-20T10:15:24;31.00;;;18.17;;
46653;SDS011;38960;51.074;17.004;2022-11-20T10:31:34;37.78;;;21.50;;
46653;SDS011;38960;51.074;17.004;2022-11-20T10:34:07;35.53;;;20.77;;
46653;SDS011;38960;51.074;17.004;2022-11-20T10:36:38;32.53;;;18.67;;
46653;SDS011;38960;51.074;17.004;2022-11-20T10:39:16;30.52;;;19.08;;
46653;SDS011;38960;51.074;17.004;2022-11-20T10:41:47;27.80;;;17.20;;
46653;SDS011;38960;51.074;17.004;2022-11-20T10:44:17;25.63;;;16.43;;
46653;SDS011;38960;51.074;17.004;2022-11-20T10:47:04;38.47;;;18.10;;
46653;SDS011;38960;51.074;17.004;2022-11-20T10:49:30;27.90;;;16.70;;
46653;SDS011;38960;51.074;17.004;2022-11-20T11:00:34;27.20;;;16.03;;
46653;SDS011;38960;51.074;17.004;2022-11-20T11:02:59;28.93;;;16.87;;
46653;SDS011;38960;51.074;17.004;2022-11-20T11:05:36;25.57;;;17.03;;
46653;SDS011;38960;51.074;17.004;2022-11-20T11:08:05;25.47;;;16.40;;
46653;SDS011;38960;51.074;17.004;2022-11-20T11:13:07;22.98;;;14.77;;
46653;SDS011;38960;51.074;17.004;2022-11-20T11:15:37;26.80;;;16.17;;
46653;SDS011;38960;51.074;17.004;2022-11-20T11:18:04;26.67;;;15.35;;
46653;SDS011;38960;51.074;17.004;2022-11-20T11:20:30;21.40;;;13.20;;
46653;SDS011;38960;51.074;17.004;2022-11-20T11:22:57;23.40;;;13.20;;
46653;SDS011;38960;51.074;17.004;2022-11-20T11:28:01;21.20;;;14.23;;
46653;SDS011;38960;51.074;17.004;2022-11-20T11:30:28;22.03;;;13.20;;
46653;SDS011;38960;51.074;17.004;2022-11-20T11:33:03;25.67;;;14.67;;
46653;SDS011;38960;51.074;17.004;2022-11-20T11:35:38;24.73;;;15.37;;
46653;SDS011;38960;51.074;17.004;2022-11-20T11:38:14;28.77;;;15.00;;
46653;SDS011;38960;51.074;17.004;2022-11-20T11:40:42;21.30;;;13.90;;
46653;SDS011;38960;51.074;17.004;2022-11-20T11:43:16;26.67;;;15.03;;
46653;SDS011;38960;51.074;17.004;2022-11-20T11:46:23;22.60;;;14.30;;
46653;SDS011;38960;51.074;17.004;2022-11-20T11:48:59;23.00;;;15.07;;
46653;SDS011;38960;51.074;17.004;2022-11-20T11:54:23;24.23;;;14.50;;
46653;SDS011;38960;51.074;17.004;2022-11-20T11:56:50;23.13;;;13.90;;
46653;SDS011;38960;51.074;17.004;2022-11-20T11:59:20;23.70;;;14.50;;
46653;SDS011;38960;51.074;17.004;2022-11-20T12:02:11;27.27;;;15.23;;
46653;SDS011;38960;51.074;17.004;2022-11-20T12:04:46;23.10;;;14.83;;
46653;SDS011;38960;51.074;17.004;2022-11-20T12:07:36;24.73;;;15.00;;
46653;SDS011;38960;51.074;17.004;2022-11-20T12:10:05;25.07;;;14.77;;
46653;SDS011;38960;51.074;17.004;2022-11-20T12:12:32;22.03;;;13.97;;
46653;SDS011;38960;51.074;17.004;2022-11-20T12:15:02;23.60;;;14.03;;
46653;SDS011;38960;51.074;17.004;2022-11-20T12:17:28;24.80;;;14.03;;
46653;SDS011;38960;51.074;17.004;2022-11-20T12:19:54;21.77;;;13.37;;
46653;SDS011;38960;51.074;17.004;2022-11-20T12:30:26;31.60;;;16.07;;
46653;SDS011;38960;51.074;17.004;2022-11-20T12:43:31;26.97;;;14.30;;
46653;SDS011;38960;51.074;17.004;2022-11-20T12:46:26;35.40;;;16.70;;
46653;SDS011;38960;51.074;17.004;2022-11-20T12:54:29;31.57;;;16.50;;
46653;SDS011;38960;51.074;17.004;2022-11-20T13:08:24;32.77;;;18.03;;
46653;SDS011;38960;51.074;17.004;2022-11-20T13:21:12;22.97;;;13.97;;
46653;SDS011;38960;51.074;17.004;2022-11-20T13:23:39;21.03;;;13.73;;
46653;SDS011;38960;51.074;17.004;2022-11-20T13:26:25;20.60;;;13.97;;
46653;SDS011;38960;51.074;17.004;2022-11-20T13:31:46;21.23;;;11.40;;
46653;SDS011;38960;51.074;17.004;2022-11-20T13:34:33;22.40;;;13.30;;
46653;SDS011;38960;51.074;17.004;2022-11-20T13:36:58;20.33;;;12.07;;
46653;SDS011;38960;51.074;17.004;2022-11-20T13:39:26;20.67;;;12.80;;
46653;SDS011;38960;51.074;17.004;2022-11-20T13:41:54;24.10;;;13.67;;
46653;SDS011;38960;51.074;17.004;2022-11-20T13:44:29;24.43;;;13.00;;
46653;SDS011;38960;51.074;17.004;2022-11-20T13:46:59;32.00;;;15.53;;
46653;SDS011;38960;51.074;17.004;2022-11-20T13:52:02;27.73;;;14.30;;
46653;SDS011;38960;51.074;17.004;2022-11-20T14:02:38;19.17;;;11.73;;
46653;SDS011;38960;51.074;17.004;2022-11-20T14:05:04;30.00;;;15.33;;
46653;SDS011;38960;51.074;17.004;2022-11-20T14:07:40;38.23;;;18.47;;
46653;SDS011;38960;51.074;17.004;2022-11-20T14:12:49;39.53;;;22.90;;
46653;SDS011;38960;51.074;17.004;2022-11-20T14:15:32;35.20;;;22.67;;
46653;SDS011;38960;51.074;17.004;2022-11-20T14:17:59;48.00;;;28.63;;
46653;SDS011;38960;51.074;17.004;2022-11-20T14:20:28;26.60;;;16.57;;
46653;SDS011;38960;51.074;17.004;2022-11-20T14:22:56;30.30;;;18.70;;
46653;SDS011;38960;51.074;17.004;2022-11-20T14:25:25;35.73;;;20.77;;
46653;SDS011;38960;51.074;17.004;2022-11-20T14:27:59;35.40;;;21.30;;
46653;SDS011;38960;51.074;17.004;2022-11-20T14:30:27;31.83;;;18.67;;
46653;SDS011;38960;51.074;17.004;2022-11-20T14:32:54;30.90;;;18.30;;
46653;SDS011;38960;51.074;17.004;2022-11-20T14:37:46;31.47;;;16.67;;
46653;SDS011;38960;51.074;17.004;2022-11-20T14:40:26;32.83;;;17.97;;
46653;SDS011;38960;51.074;17.004;2022-11-20T14:42:54;39.60;;;20.50;;
46653;SDS011;38960;51.074;17.004;2022-11-20T14:45:20;43.90;;;21.83;;
46653;SDS011;38960;51.074;17.004;2022-11-20T14:47:46;34.73;;;19.63;;
46653;SDS011;38960;51.074;17.004;2022-11-20T14:50:13;37.27;;;21.07;;
46653;SDS011;38960;51.074;17.004;2022-11-20T14:52:52;37.30;;;21.13;;
46653;SDS011;38960;51.074;17.004;2022-11-20T14:55:36;36.73;;;20.57;;
46653;SDS011;38960;51.074;17.004;2022-11-20T14:58:04;35.17;;;19.63;;
46653;SDS011;38960;51.074;17.004;2022-11-20T15:00:31;41.90;;;20.97;;
46653;SDS011;38960;51.074;17.004;2022-11-20T15:02:58;45.93;;;19.50;;
46653;SDS011;38960;51.074;17.004;2022-11-20T15:08:52;38.57;;;20.80;;
46653;SDS011;38960;51.074;17.004;2022-11-20T15:11:18;37.00;;;17.90;;
46653;SDS011;38960;51.074;17.004;2022-11-20T15:13:46;33.30;;;17.50;;
46653;SDS011;38960;51.074;17.004;2022-11-20T15:16:18;30.83;;;15.97;;
46653;SDS011;38960;51.074;17.004;2022-11-20T15:18:45;35.37;;;17.93;;
46653;SDS011;38960;51.074;17.004;2022-11-20T15:21:12;35.07;;;18.20;;
46653;SDS011;38960;51.074;17.004;2022-11-20T15:23:39;35.63;;;16.77;;
46653;SDS011;38960;51.074;17.004;2022-11-20T15:26:05;31.07;;;17.53;;
46653;SDS011;38960;51.074;17.004;2022-11-20T15:28:41;36.87;;;17.57;;
46653;SDS011;38960;51.074;17.004;2022-11-20T15:31:15;43.60;;;19.90;;
46653;SDS011;38960;51.074;17.004;2022-11-20T15:33:42;39.17;;;18.27;;
46653;SDS011;38960;51.074;17.004;2022-11-20T15:36:08;40.43;;;20.00;;
46653;SDS011;38960;51.074;17.004;2022-11-20T15:38:34;48.30;;;23.53;;
46653;SDS011;38960;51.074;17.004;2022-11-20T15:40:59;41.53;;;25.60;;
46653;SDS011;38960;51.074;17.004;2022-11-20T15:43:25;51.57;;;27.00;;
46653;SDS011;38960;51.074;17.004;2022-11-20T15:45:51;58.93;;;29.50;;
46653;SDS011;38960;51.074;17.004;2022-11-20T15:48:38;60.40;;;30.43;;
46653;SDS011;38960;51.074;17.004;2022-11-20T15:53:37;51.38;;;26.42;;
46653;SDS011;38960;51.074;17.004;2022-11-20T15:56:03;68.10;;;31.97;;
46653;SDS011;38960;51.074;17.004;2022-11-20T15:58:29;69.70;;;34.60;;
46653;SDS011;38960;51.074;17.004;2022-11-20T16:00:54;82.80;;;41.67;;
46653;SDS011;38960;51.074;17.004;2022-11-20T16:03:20;77.03;;;38.53;;
46653;SDS011;38960;51.074;17.004;2022-11-20T16:05:45;79.47;;;40.37;;
46653;SDS011;38960;51.074;17.004;2022-11-20T16:08:11;78.30;;;39.33;;
46653;SDS011;38960;51.074;17.004;2022-11-20T16:10:37;79.93;;;41.97;;
46653;SDS011;38960;51.074;17.004;2022-11-20T16:13:03;77.77;;;39.30;;
46653;SDS011;38960;51.074;17.004;2022-11-20T16:15:50;64.07;;;35.50;;
46653;SDS011;38960;51.074;17.004;2022-11-20T16:18:20;67.77;;;34.20;;
46653;SDS011;38960;51.074;17.004;2022-11-20T16:20:47;73.40;;;35.73;;
46653;SDS011;38960;51.074;17.004;2022-11-20T16:23:16;68.70;;;34.43;;
46653;SDS011;38960;51.074;17.004;2022-11-20T16:25:42;59.93;;;31.37;;